Terminal Aerodrome Forecast
Issued by NWS Sioux Falls, SD

Home | Current Version | Previous Version | Graphics & Text | Print | Product List | Glossary Off
Versions: 1 2 3 4 5 6 7 8 9 10 11 12 13

000
FTUS43 KFSD 161501 AAB
TAFSUX
TAF AMD
KSUX 161501Z 1615/1712 33011KT P6SM BKN015
     FM161600 32009KT P6SM SCT015 SCT200
     FM161800 31005KT P6SM FEW250
     FM170300 17004KT P6SM FEW250=

USA.gov is the U.S. government's official web portal to all federal, state and local government web resources and services.